createdAt,value
2022-10-22T00:00:08.199Z,99137.91
2022-10-22T00:02:35.821Z,99142.19
2022-10-22T00:05:03.006Z,99146.38
2022-10-22T00:07:30.169Z,99142.97
2022-10-22T00:09:56.896Z,99127.56
2022-10-22T00:12:24.356Z,99126.63
2022-10-22T00:14:51.273Z,99127.44
2022-10-22T00:17:18.090Z,99127.31
2022-10-22T00:19:45.125Z,99122.94
2022-10-22T00:22:12.561Z,99134.78
2022-10-22T00:24:40.414Z,99129.53
2022-10-22T00:27:10.209Z,99126.09
2022-10-22T00:29:37.183Z,99126.88
2022-10-22T00:32:05.490Z,99126.03
2022-10-22T00:34:32.641Z,99130.28
2022-10-22T00:36:59.419Z,99126.88
2022-10-22T00:39:28.210Z,99126.75
2022-10-22T00:41:57.612Z,99126.88
2022-10-22T00:45:05.031Z,99127.94
2022-10-22T00:47:35.989Z,99122.19
2022-10-22T00:50:07.618Z,99124.06
2022-10-22T00:52:35.573Z,99118.16
2022-10-22T00:55:02.649Z,99134.47
2022-10-22T00:57:29.963Z,99124.28
2022-10-22T00:59:57.995Z,99126.91
2022-10-22T01:02:24.887Z,99129.56
2022-10-22T01:04:51.702Z,99131.34
2022-10-22T01:07:24.132Z,99133.13
2022-10-22T01:10:02.128Z,99134.78
2022-10-22T01:13:20.299Z,99126.50
2022-10-22T01:16:30.664Z,99130.13
2022-10-22T01:19:22.307Z,99120.06
2022-10-22T01:22:00.470Z,99120.09
2022-10-22T01:24:59.784Z,99123.50
2022-10-22T01:28:10.011Z,99123.53
2022-10-22T01:30:39.280Z,99127.91
2022-10-22T01:33:10.614Z,99127.00
2022-10-22T01:35:43.585Z,99126.09
2022-10-22T01:38:17.030Z,99130.34
2022-10-22T01:40:45.331Z,99128.66
2022-10-22T01:43:13.076Z,99123.53
2022-10-22T01:45:48.786Z,99129.47
2022-10-22T01:48:58.028Z,99133.03
2022-10-22T01:51:44.309Z,99135.56
2022-10-22T01:54:36.541Z,99128.78
2022-10-22T01:57:28.287Z,99128.00
2022-10-22T02:00:05.652Z,99128.84
2022-10-22T02:03:29.196Z,99140.78
2022-10-22T02:06:03.766Z,99129.88
2022-10-22T02:08:35.672Z,99123.06
2022-10-22T02:11:04.733Z,99123.06
2022-10-22T02:13:38.756Z,99126.44
2022-10-22T02:16:10.784Z,99121.44
2022-10-22T02:18:42.859Z,99125.69
2022-10-22T02:21:09.977Z,99129.13
2022-10-22T02:23:37.194Z,99123.22
2022-10-22T02:26:45.691Z,99120.72
2022-10-22T02:29:20.589Z,99119.19
2022-10-22T02:31:50.901Z,99112.31
2022-10-22T02:34:25.448Z,99112.38
2022-10-22T02:36:53.833Z,99116.66
2022-10-22T02:39:21.751Z,99113.19
2022-10-22T02:41:48.884Z,99108.09
2022-10-22T02:44:15.653Z,99121.72
2022-10-22T02:46:43.876Z,99128.50
2022-10-22T02:49:10.546Z,99126.84
2022-10-22T02:51:37.247Z,99126.84
2022-10-22T02:54:04.153Z,99124.31
2022-10-22T02:56:30.905Z,99119.25
2022-10-22T02:58:57.695Z,99123.63
2022-10-22T03:01:24.595Z,99126.16
2022-10-22T03:03:51.374Z,99133.03
2022-10-22T03:06:18.740Z,99127.94
2022-10-22T03:08:45.560Z,99137.38
2022-10-22T03:11:12.239Z,99138.28
2022-10-22T03:13:38.981Z,99147.63
2022-10-22T03:16:06.296Z,99138.22
2022-10-22T03:18:33.068Z,99140.78
2022-10-22T03:21:20.787Z,99145.84
2022-10-22T03:23:48.487Z,99146.69
2022-10-22T03:26:15.782Z,99144.13
2022-10-22T03:28:43.270Z,99137.22
2022-10-22T03:31:10.007Z,99144.78
2022-10-22T03:33:36.769Z,99144.84
2022-10-22T03:36:03.676Z,99137.91
2022-10-22T03:38:30.846Z,99143.84
2022-10-22T03:40:58.512Z,99139.63
2022-10-22T03:43:25.381Z,99149.00
2022-10-22T03:45:52.093Z,99148.19
2022-10-22T03:48:18.781Z,99162.66
2022-10-22T03:50:45.489Z,99166.09
2022-10-22T03:53:12.266Z,99161.84
2022-10-22T03:55:41.829Z,99167.78
2022-10-22T03:58:08.902Z,99172.91
2022-10-22T04:00:36.400Z,99184.00
2022-10-22T04:03:03.544Z,99182.25
2022-10-22T04:05:32.715Z,99189.09
2022-10-22T04:08:00.001Z,99182.25
2022-10-22T04:10:26.873Z,99187.38
2022-10-22T04:12:53.649Z,99195.78
2022-10-22T04:15:20.403Z,99189.84
2022-10-22T04:17:47.128Z,99194.91
2022-10-22T04:20:13.940Z,99190.59
2022-10-22T04:22:40.663Z,99189.66
2022-10-22T04:25:07.693Z,99199.03
2022-10-22T04:27:35.351Z,99201.53
2022-10-22T04:30:04.942Z,99203.16
2022-10-22T04:32:31.712Z,99200.63
2022-10-22T04:34:58.385Z,99207.28
2022-10-22T04:37:25.109Z,99220.94
2022-10-22T04:39:51.826Z,99223.38
2022-10-22T04:42:18.830Z,99216.50
2022-10-22T04:44:46.187Z,99216.44
2022-10-22T04:47:12.893Z,99223.19
2022-10-22T04:49:40.594Z,99230.88
2022-10-22T04:52:07.340Z,99226.63
2022-10-22T04:54:34.083Z,99222.31
2022-10-22T04:57:00.980Z,99224.13
2022-10-22T04:59:27.860Z,99224.16
2022-10-22T05:01:54.601Z,99224.16
2022-10-22T05:04:21.346Z,99225.06
2022-10-22T05:06:48.222Z,99225.94
2022-10-22T05:09:20.861Z,99233.66
2022-10-22T05:11:52.315Z,99225.19
2022-10-22T05:14:27.986Z,99232.97
2022-10-22T05:16:54.858Z,99234.75
2022-10-22T05:19:25.305Z,99236.53
2022-10-22T05:21:55.007Z,99237.44
2022-10-22T05:24:22.124Z,99233.19
2022-10-22T05:26:50.946Z,99235.81
2022-10-22T05:29:18.278Z,99241.00
2022-10-22T05:31:45.215Z,99244.44
2022-10-22T05:34:12.299Z,99241.94
2022-10-22T05:36:39.198Z,99241.94
2022-10-22T05:39:06.804Z,99236.88
2022-10-22T05:41:37.844Z,99236.88
2022-10-22T05:44:05.962Z,99237.81
2022-10-22T05:46:36.520Z,99245.50
2022-10-22T05:49:06.618Z,99248.09
2022-10-22T05:51:37.290Z,99248.16
2022-10-22T05:54:07.508Z,99249.03
2022-10-22T05:56:35.489Z,99253.38
2022-10-22T06:01:33.144Z,99260.31
2022-10-22T06:04:04.309Z,99254.41
2022-10-22T06:06:44.899Z,99263.81
2022-10-22T06:09:23.710Z,99272.41
2022-10-22T06:11:51.458Z,99270.66
2022-10-22T06:14:20.305Z,99271.47
2022-10-22T06:16:47.322Z,99271.47
2022-10-22T06:19:19.184Z,99276.53
2022-10-22T06:21:46.688Z,99280.66
2022-10-22T06:24:14.342Z,99277.13
2022-10-22T06:26:42.014Z,99281.97
2022-10-22T06:29:09.533Z,99280.91
2022-10-22T06:31:39.275Z,99278.97
2022-10-22T06:34:11.770Z,99283.03
2022-10-22T06:36:39.340Z,99291.41
2022-10-22T06:39:06.247Z,99293.69
2022-10-22T06:41:33.136Z,99300.13
2022-10-22T06:44:00.053Z,99307.78
2022-10-22T06:46:27.128Z,99309.94
2022-10-22T06:49:01.017Z,99313.41
2022-10-22T06:51:28.622Z,99308.16
2022-10-22T06:53:57.455Z,99313.66
2022-10-22T06:56:27.527Z,99331.06
2022-10-22T06:58:56.894Z,99325.63
2022-10-22T07:01:28.827Z,99330.38
2022-10-22T07:03:55.746Z,99340.91
2022-10-22T07:06:24.832Z,99346.50
2022-10-22T07:08:54.554Z,99334.56
2022-10-22T07:11:26.249Z,99341.50
2022-10-22T07:13:56.550Z,99347.88
2022-10-22T07:16:28.036Z,99352.19
2022-10-22T07:18:57.914Z,99344.59
2022-10-22T07:21:26.003Z,99359.69
2022-10-22T07:23:52.765Z,99356.88
2022-10-22T07:26:24.749Z,99362.31
2022-10-22T07:28:51.940Z,99382.16
2022-10-22T07:31:19.599Z,99375.78
2022-10-22T07:33:46.575Z,99382.03
2022-10-22T07:36:17.806Z,99390.94
2022-10-22T07:38:55.843Z,99391.47
2022-10-22T07:41:23.692Z,99395.25
2022-10-22T07:43:50.869Z,99396.09
2022-10-22T07:46:18.522Z,99397.97
2022-10-22T07:48:45.332Z,99399.91
2022-10-22T07:51:12.307Z,99402.50
2022-10-22T07:53:39.415Z,99407.66
2022-10-22T07:56:07.089Z,99407.63
2022-10-22T07:58:34.852Z,99415.13
2022-10-22T08:01:03.042Z,99422.41
2022-10-22T08:03:30.257Z,99425.19
2022-10-22T08:05:57.425Z,99424.44
2022-10-22T08:08:28.308Z,99436.38
2022-10-22T08:11:00.089Z,99437.88
2022-10-22T08:13:28.303Z,99440.97
2022-10-22T08:15:57.447Z,99444.72
2022-10-22T08:18:25.057Z,99443.16
2022-10-22T08:20:53.531Z,99459.66
2022-10-22T08:23:24.414Z,99453.81
2022-10-22T08:25:54.481Z,99457.31
2022-10-22T08:28:22.160Z,99455.22
2022-10-22T08:30:49.588Z,99458.91
2022-10-22T08:33:16.441Z,99461.22
2022-10-22T08:35:51.648Z,99456.72
2022-10-22T08:38:18.846Z,99465.66
2022-10-22T08:40:52.929Z,99473.19
2022-10-22T08:43:41.880Z,99474.97
2022-10-22T08:46:52.510Z,99485.66
2022-10-22T08:49:28.304Z,99485.09
2022-10-22T08:51:58.321Z,99490.25
2022-10-22T08:54:50.725Z,99492.56
2022-10-22T08:58:02.490Z,99487.31
2022-10-22T09:00:32.820Z,99500.28
2022-10-22T09:03:21.543Z,99501.03
2022-10-22T09:06:05.279Z,99500.31
2022-10-22T09:08:32.463Z,99511.31
2022-10-22T09:11:13.858Z,99504.13
2022-10-22T09:13:44.710Z,99515.03
2022-10-22T09:16:20.407Z,99523.31
2022-10-22T09:19:16.808Z,99523.78
2022-10-22T09:21:51.469Z,99520.88
2022-10-22T09:24:47.540Z,99524.81
2022-10-22T09:27:30.320Z,99536.28
2022-10-22T09:29:57.793Z,99524.63
2022-10-22T09:32:26.059Z,99532.63
2022-10-22T09:34:58.286Z,99520.81
2022-10-22T09:37:29.923Z,99529.66
2022-10-22T09:40:04.913Z,99533.28
2022-10-22T09:42:33.493Z,99533.50
2022-10-22T09:45:00.447Z,99534.41
2022-10-22T09:47:43.491Z,99537.88
2022-10-22T09:50:44.302Z,99552.72
2022-10-22T09:53:26.475Z,99549.38
2022-10-22T09:55:58.033Z,99551.97
2022-10-22T09:58:25.251Z,99550.28
2022-10-22T10:00:59.272Z,99560.75
2022-10-22T10:03:31.694Z,99552.31
2022-10-22T10:06:04.802Z,99564.41
2022-10-22T10:08:33.202Z,99571.31
2022-10-22T10:11:24.474Z,99577.34
2022-10-22T10:14:19.175Z,99576.72
2022-10-22T10:17:18.517Z,99582.91
2022-10-22T10:20:03.916Z,99585.56
2022-10-22T10:22:58.045Z,99587.28
2022-10-22T10:25:52.444Z,99585.63
2022-10-22T10:29:05.965Z,99589.97
2022-10-22T10:32:07.364Z,99590.13
2022-10-22T10:34:56.531Z,99596.16
2022-10-22T10:37:36.057Z,99587.75
2022-10-22T10:40:44.923Z,99594.97
2022-10-22T10:43:24.977Z,99602.84
2022-10-22T10:46:25.170Z,99603.91
2022-10-22T10:49:00.096Z,99608.50
2022-10-22T10:51:45.231Z,99607.09
2022-10-22T10:54:30.686Z,99612.44
2022-10-22T10:57:09.902Z,99619.50
2022-10-22T11:00:21.194Z,99624.91
2022-10-22T11:03:11.087Z,99624.91
2022-10-22T11:06:01.583Z,99621.44
2022-10-22T11:08:38.781Z,99625.53
2022-10-22T11:11:33.788Z,99628.75
2022-10-22T11:14:16.035Z,99628.44
2022-10-22T11:17:07.151Z,99619.28
2022-10-22T11:20:02.722Z,99620.50
2022-10-22T11:23:00.392Z,99623.06
2022-10-22T11:25:43.386Z,99618.81
2022-10-22T11:28:19.628Z,99629.00
2022-10-22T11:30:56.969Z,99623.56
2022-10-22T11:33:33.744Z,99625.78
2022-10-22T11:36:07.378Z,99620.19
2022-10-22T11:38:35.931Z,99623.94
2022-10-22T11:41:14.033Z,99612.28
2022-10-22T11:43:59.466Z,99617.88
2022-10-22T11:46:39.793Z,99615.69
2022-10-22T11:49:22.387Z,99614.44
2022-10-22T11:51:49.304Z,99605.50
2022-10-22T11:54:42.836Z,99607.66
2022-10-22T11:57:15.548Z,99608.88
2022-10-22T11:59:58.844Z,99611.47
2022-10-22T12:02:28.493Z,99592.66
2022-10-22T12:05:18.741Z,99593.50
2022-10-22T12:07:54.982Z,99599.38
2022-10-22T12:10:34.555Z,99586.50
2022-10-22T12:13:13.386Z,99590.88
2022-10-22T12:15:49.127Z,99583.19
2022-10-22T12:18:17.673Z,99582.34
2022-10-22T12:20:50.713Z,99590.09
2022-10-22T12:23:17.825Z,99583.34
2022-10-22T12:25:44.595Z,99574.69
2022-10-22T12:28:13.126Z,99581.47
2022-10-22T12:30:41.298Z,99576.53
2022-10-22T12:33:20.201Z,99582.88
2022-10-22T12:35:49.192Z,99584.16
2022-10-22T12:38:25.431Z,99582.03
2022-10-22T12:40:56.351Z,99586.88
2022-10-22T12:43:30.725Z,99584.75
2022-10-22T12:45:59.761Z,99568.16
2022-10-22T12:48:38.850Z,99579.25
2022-10-22T12:51:10.447Z,99563.72
2022-10-22T12:53:47.202Z,99575.09
2022-10-22T12:56:21.957Z,99573.69
2022-10-22T12:58:56.549Z,99571.44
2022-10-22T13:01:28.134Z,99566.63
2022-10-22T13:04:15.053Z,99568.81
2022-10-22T13:06:49.505Z,99576.94
2022-10-22T13:09:26.998Z,99566.28
2022-10-22T13:12:04.532Z,99568.50
2022-10-22T13:14:35.170Z,99563.66
2022-10-22T13:17:12.750Z,99575.34
2022-10-22T13:19:53.469Z,99572.34
2022-10-22T13:22:38.267Z,99575.34
2022-10-22T13:25:19.992Z,99565.41
2022-10-22T13:28:01.069Z,99558.00
2022-10-22T13:30:34.879Z,99561.59
2022-10-22T13:33:19.891Z,99560.28
2022-10-22T13:35:46.668Z,99553.84
2022-10-22T13:38:19.398Z,99565.34
2022-10-22T13:40:47.583Z,99570.13
2022-10-22T13:43:14.858Z,99565.34
2022-10-22T13:45:42.533Z,99570.72
2022-10-22T13:48:16.034Z,99561.47
2022-10-22T13:50:43.132Z,99565.06
2022-10-22T13:53:18.867Z,99560.06
2022-10-22T13:55:46.367Z,99562.78
2022-10-22T14:00:50.338Z,99564.84
2022-10-22T14:03:21.977Z,99568.59
2022-10-22T14:05:49.644Z,99571.50
2022-10-22T14:08:20.488Z,99569.09
2022-10-22T14:10:48.065Z,99567.66
2022-10-22T14:13:17.537Z,99567.00
2022-10-22T14:15:47.602Z,99571.56
2022-10-22T14:18:25.582Z,99567.59
2022-10-22T14:21:07.358Z,99567.16
2022-10-22T14:23:38.299Z,99570.09
2022-10-22T14:26:07.191Z,99575.44
2022-10-22T14:28:41.260Z,99576.41
2022-10-22T14:31:18.738Z,99585.06
2022-10-22T14:33:45.787Z,99573.06
2022-10-22T14:36:14.944Z,99579.06
2022-10-22T14:38:43.280Z,99580.81
2022-10-22T14:41:27.807Z,99574.06
2022-10-22T14:43:55.752Z,99575.88
2022-10-22T14:46:22.742Z,99575.03
2022-10-22T14:48:49.677Z,99578.56
2022-10-22T14:51:21.757Z,99577.56
2022-10-22T14:53:49.169Z,99574.13
2022-10-22T14:56:21.292Z,99583.63
2022-10-22T14:58:49.209Z,99583.53
2022-10-22T15:01:16.707Z,99579.22
2022-10-22T15:03:43.471Z,99589.59
2022-10-22T15:06:10.365Z,99587.03
2022-10-22T15:08:37.351Z,99592.28
2022-10-22T15:11:08.371Z,99583.72
2022-10-22T15:13:35.588Z,99591.44
2022-10-22T15:16:06.392Z,99591.44
2022-10-22T15:18:33.157Z,99589.00
2022-10-22T15:21:07.220Z,99588.25
2022-10-22T15:23:34.301Z,99585.97
2022-10-22T15:26:01.094Z,99592.94
2022-10-22T15:28:27.970Z,99589.63
2022-10-22T15:30:57.652Z,99592.28
2022-10-22T15:33:25.156Z,99595.00
2022-10-22T15:35:52.236Z,99592.56
2022-10-22T15:38:19.553Z,99593.63
2022-10-22T15:40:46.512Z,99598.88
2022-10-22T15:43:14.130Z,99593.84
2022-10-22T15:45:40.963Z,99590.53
2022-10-22T15:48:07.670Z,99594.91
2022-10-22T15:50:38.678Z,99593.31
2022-10-22T15:53:06.164Z,99585.94
2022-10-22T15:55:33.195Z,99593.81
2022-10-22T15:58:03.224Z,99592.31
2022-10-22T16:00:30.926Z,99591.66
2022-10-22T16:02:57.701Z,99594.38
2022-10-22T16:05:24.879Z,99595.41
2022-10-22T16:07:55.585Z,99591.41
2022-10-22T16:10:22.717Z,99588.34
2022-10-22T16:12:51.550Z,99594.56
2022-10-22T16:15:18.242Z,99598.22
2022-10-22T16:17:45.031Z,99597.75
2022-10-22T16:22:43.537Z,99603.50
2022-10-22T16:25:10.434Z,99598.66
2022-10-22T16:27:37.835Z,99609.94
2022-10-22T16:30:05.230Z,99600.41
2022-10-22T16:32:31.945Z,99603.66
2022-10-22T16:34:58.964Z,99608.53
2022-10-22T16:37:25.669Z,99609.03
2022-10-22T16:39:52.422Z,99600.94
2022-10-22T16:42:19.180Z,99606.56
2022-10-22T16:44:45.880Z,99610.56
2022-10-22T16:47:12.602Z,99619.50
2022-10-22T16:49:39.296Z,99610.41
2022-10-22T16:52:06.101Z,99616.81
2022-10-22T16:54:32.810Z,99622.19
2022-10-22T16:56:59.570Z,99630.13
2022-10-22T16:59:26.278Z,99634.75
2022-10-22T17:01:54.611Z,99633.31
2022-10-22T17:04:22.358Z,99626.75
2022-10-22T17:06:49.075Z,99628.84
2022-10-22T17:09:15.881Z,99636.88
2022-10-22T17:11:44.830Z,99639.88
2022-10-22T17:14:11.885Z,99648.00
2022-10-22T17:16:38.729Z,99648.31
2022-10-22T17:19:06.301Z,99648.50
2022-10-22T17:21:33.880Z,99659.78
2022-10-22T17:24:00.642Z,99660.19
2022-10-22T17:26:27.679Z,99663.94
2022-10-22T17:28:54.947Z,99655.59
2022-10-22T17:31:29.792Z,99662.59
2022-10-22T17:33:57.616Z,99650.84
2022-10-22T17:36:27.528Z,99649.22
2022-10-22T17:38:59.641Z,99648.50
2022-10-22T17:41:33.368Z,99652.00
2022-10-22T17:44:04.369Z,99653.88
2022-10-22T17:46:32.683Z,99653.97
2022-10-22T17:49:07.261Z,99658.44
2022-10-22T17:51:33.968Z,99657.78
2022-10-22T17:54:02.499Z,99655.41
2022-10-22T17:56:31.712Z,99656.50
2022-10-22T17:58:59.779Z,99649.88
2022-10-22T18:01:31.089Z,99651.94
2022-10-22T18:04:05.249Z,99648.88
2022-10-22T18:06:32.891Z,99641.41
2022-10-22T18:08:59.659Z,99644.31
2022-10-22T18:11:28.216Z,99646.28
2022-10-22T18:13:56.987Z,99650.47
2022-10-22T18:16:25.086Z,99655.84
2022-10-22T18:18:55.591Z,99651.84
2022-10-22T18:21:26.993Z,99659.75
2022-10-22T18:23:54.414Z,99657.41
2022-10-22T18:26:25.821Z,99660.91
2022-10-22T18:28:54.433Z,99658.50
2022-10-22T18:31:23.954Z,99661.19
2022-10-22T18:33:50.903Z,99655.38
2022-10-22T18:36:21.873Z,99655.50
2022-10-22T18:38:57.879Z,99659.91
2022-10-22T18:41:26.093Z,99661.84
2022-10-22T18:43:58.979Z,99650.88
2022-10-22T18:46:27.270Z,99646.78
2022-10-22T18:48:56.184Z,99640.13
2022-10-22T18:51:30.808Z,99653.03
2022-10-22T18:54:05.418Z,99647.22
2022-10-22T18:56:44.844Z,99638.06
2022-10-22T18:59:21.382Z,99634.75
2022-10-22T19:01:48.833Z,99633.16
2022-10-22T19:04:15.865Z,99630.72
2022-10-22T19:06:45.527Z,99643.63
2022-10-22T19:09:16.979Z,99642.81
2022-10-22T19:11:45.500Z,99640.34
2022-10-22T19:14:14.804Z,99643.00
2022-10-22T19:16:41.760Z,99643.13
2022-10-22T19:19:08.602Z,99644.94
2022-10-22T19:21:36.987Z,99628.00
2022-10-22T19:24:04.180Z,99639.09
2022-10-22T19:26:31.365Z,99633.22
2022-10-22T19:28:59.533Z,99634.13
2022-10-22T19:31:29.762Z,99630.00
2022-10-22T19:33:56.937Z,99633.47
2022-10-22T19:36:27.428Z,99633.56
2022-10-22T19:38:55.861Z,99637.94
2022-10-22T19:41:25.805Z,99643.25
2022-10-22T19:43:54.830Z,99649.31
2022-10-22T19:46:23.870Z,99649.41
2022-10-22T19:48:52.272Z,99638.59
2022-10-22T19:51:22.907Z,99637.88
2022-10-22T19:53:51.089Z,99634.50
2022-10-22T19:56:20.663Z,99631.97
2022-10-22T19:58:47.958Z,99632.91
2022-10-22T20:01:18.356Z,99627.78
2022-10-22T20:03:46.357Z,99631.22
2022-10-22T20:06:16.110Z,99622.06
2022-10-22T20:08:43.356Z,99626.31
2022-10-22T20:11:18.410Z,99630.00
2022-10-22T20:13:49.634Z,99631.03
2022-10-22T20:16:24.231Z,99627.75
2022-10-22T20:18:52.505Z,99624.41
2022-10-22T20:21:20.780Z,99613.06
2022-10-22T20:23:52.031Z,99613.31
2022-10-22T20:26:19.375Z,99619.75
2022-10-22T20:28:46.094Z,99622.53
2022-10-22T20:31:16.368Z,99621.84
2022-10-22T20:33:43.491Z,99623.84
2022-10-22T20:36:17.191Z,99632.88
2022-10-22T20:38:45.319Z,99632.50
2022-10-22T20:41:15.577Z,99631.94
2022-10-22T20:43:48.041Z,99633.00
2022-10-22T20:46:26.886Z,99634.69
2022-10-22T20:48:58.737Z,99632.19
2022-10-22T20:51:25.704Z,99635.56
2022-10-22T20:53:52.424Z,99636.41
2022-10-22T20:56:19.912Z,99631.31
2022-10-22T20:58:48.680Z,99624.50
2022-10-22T21:01:23.727Z,99634.69
2022-10-22T21:03:52.586Z,99644.97
2022-10-22T21:06:23.154Z,99641.59
2022-10-22T21:08:50.870Z,99642.44
2022-10-22T21:11:19.196Z,99639.94
2022-10-22T21:13:46.290Z,99637.41
2022-10-22T21:16:14.923Z,99637.41
2022-10-22T21:18:41.879Z,99635.75
2022-10-22T21:21:09.690Z,99634.53
2022-10-22T21:23:37.136Z,99639.13
2022-10-22T21:26:04.906Z,99638.69
2022-10-22T21:28:36.061Z,99640.63
2022-10-22T21:31:05.634Z,99648.47
2022-10-22T21:33:36.921Z,99640.91
2022-10-22T21:36:04.134Z,99635.94
2022-10-22T21:38:31.300Z,99641.09
2022-10-22T21:40:58.252Z,99633.53
2022-10-22T21:43:24.995Z,99631.94
2022-10-22T21:45:51.703Z,99624.38
2022-10-22T21:48:18.450Z,99621.06
2022-10-22T21:50:45.278Z,99624.59
2022-10-22T21:53:13.206Z,99622.09
2022-10-22T21:55:41.497Z,99616.25
2022-10-22T21:58:09.022Z,99624.00
2022-10-22T22:00:36.596Z,99622.41
2022-10-22T22:03:07.023Z,99616.47
2022-10-22T22:05:33.995Z,99620.81
2022-10-22T22:08:00.702Z,99619.16
2022-10-22T22:10:27.577Z,99622.63
2022-10-22T22:12:54.340Z,99626.06
2022-10-22T22:15:21.289Z,99621.81
2022-10-22T22:17:48.006Z,99624.44
2022-10-22T22:20:15.017Z,99617.66
2022-10-22T22:22:42.049Z,99619.34
2022-10-22T22:25:09.683Z,99620.25
2022-10-22T22:27:36.457Z,99614.28
2022-10-22T22:30:03.780Z,99620.25
2022-10-22T22:32:30.557Z,99625.41
2022-10-22T22:34:57.255Z,99622.84
2022-10-22T22:37:23.974Z,99615.22
2022-10-22T22:39:50.684Z,99618.66
2022-10-22T22:42:17.405Z,99612.81
2022-10-22T22:44:44.138Z,99602.63
2022-10-22T22:47:11.141Z,99611.25
2022-10-22T22:49:37.874Z,99601.13
2022-10-22T22:52:05.065Z,99602.00
2022-10-22T22:54:31.832Z,99604.63
2022-10-22T22:56:58.533Z,99600.41
2022-10-22T22:59:25.257Z,99607.25
2022-10-22T23:01:52.046Z,99613.28
2022-10-22T23:04:25.111Z,99615.88
2022-10-22T23:06:52.009Z,99616.78
2022-10-22T23:11:48.025Z,99603.19
2022-10-22T23:14:17.327Z,99599.00
2022-10-22T23:16:51.311Z,99588.78
2022-10-22T23:19:21.501Z,99597.34
2022-10-22T23:21:54.770Z,99598.25
2022-10-22T23:24:26.279Z,99599.97
2022-10-22T23:26:55.693Z,99607.69
2022-10-22T23:29:35.670Z,99603.44
2022-10-22T23:32:11.984Z,99597.53
2022-10-22T23:34:38.729Z,99600.97
2022-10-22T23:37:05.895Z,99591.66
2022-10-22T23:39:32.886Z,99595.06
2022-10-22T23:41:59.669Z,99588.31
2022-10-22T23:44:26.672Z,99592.59
2022-10-22T23:46:53.601Z,99593.47
2022-10-22T23:49:20.337Z,99584.72
2022-10-22T23:51:47.609Z,99574.81
2022-10-22T23:54:17.702Z,99557.94
2022-10-22T23:56:45.237Z,99563.31
